createdAt,value
2023-05-01T00:01:55.529Z,100828.06
2023-05-01T00:04:05.637Z,100827.86
2023-05-01T00:06:19.018Z,100824.42
2023-05-01T00:08:29.275Z,100825.08
2023-05-01T00:10:43.031Z,100823.69
2023-05-01T00:13:03.734Z,100823.80
2023-05-01T00:15:19.080Z,100821.33
2023-05-01T00:17:34.884Z,100825.92
2023-05-01T00:20:07.101Z,100823.30
2023-05-01T00:22:28.078Z,100820.60
2023-05-01T00:24:41.401Z,100819.14
2023-05-01T00:27:03.658Z,100814.17
2023-05-01T00:29:14.531Z,100814.05
2023-05-01T00:31:29.211Z,100820.71
2023-05-01T00:33:49.359Z,100818.98
2023-05-01T00:35:59.342Z,100818.83
2023-05-01T00:38:09.105Z,100819.77
2023-05-01T00:40:25.918Z,100816.17
2023-05-01T00:42:40.365Z,100817.14
2023-05-01T00:44:50.228Z,100814.55
2023-05-01T00:47:01.304Z,100808.32
2023-05-01T00:49:11.448Z,100807.92
2023-05-01T00:51:22.005Z,100805.55
2023-05-01T00:53:32.631Z,100808.31
2023-05-01T00:55:45.495Z,100804.98
2023-05-01T00:57:59.620Z,100807.84
2023-05-01T01:00:14.492Z,100810.31
2023-05-01T01:02:22.451Z,100802.52
2023-05-01T01:04:46.879Z,100803.81
2023-05-01T01:07:14.441Z,100802.59
2023-05-01T01:09:50.275Z,100806.40
2023-05-01T01:12:18.565Z,100807.54
2023-05-01T01:14:37.535Z,100813.27
2023-05-01T01:17:11.446Z,100809.02
2023-05-01T01:19:58.474Z,100805.25
2023-05-01T01:22:22.644Z,100818.23
2023-05-01T01:25:01.485Z,100815.56
2023-05-01T01:27:59.085Z,100811.15
2023-05-01T01:30:42.584Z,100805.00
2023-05-01T01:33:24.673Z,100804.91
2023-05-01T01:35:36.089Z,100810.06
2023-05-01T01:37:57.652Z,100808.18
2023-05-01T01:40:16.485Z,100808.85
2023-05-01T01:42:33.097Z,100806.61
2023-05-01T01:44:45.192Z,100806.48
2023-05-01T01:46:56.389Z,100804.67
2023-05-01T01:49:08.585Z,100803.50
2023-05-01T01:51:40.443Z,100800.27
2023-05-01T01:53:54.162Z,100802.59
2023-05-01T01:56:06.834Z,100800.38
2023-05-01T01:58:26.567Z,100797.61
2023-05-01T02:00:38.024Z,100798.16
2023-05-01T02:02:49.380Z,100798.04
2023-05-01T02:05:02.330Z,100794.20
2023-05-01T02:07:19.071Z,100796.04
2023-05-01T02:09:41.581Z,100796.54
2023-05-01T02:11:52.846Z,100797.13
2023-05-01T02:14:02.040Z,100801.82
2023-05-01T02:16:16.983Z,100800.10
2023-05-01T02:18:38.508Z,100806.61
2023-05-01T02:20:48.611Z,100806.09
2023-05-01T02:22:59.682Z,100798.58
2023-05-01T02:25:15.395Z,100798.83
2023-05-01T02:27:25.462Z,100802.31
2023-05-01T02:29:38.170Z,100796.02
2023-05-01T02:31:48.624Z,100795.78
2023-05-01T02:34:01.556Z,100795.55
2023-05-01T02:36:11.212Z,100799.67
2023-05-01T02:38:21.256Z,100799.77
2023-05-01T02:40:45.490Z,100796.22
2023-05-01T02:42:58.814Z,100793.67
2023-05-01T02:45:31.353Z,100796.15
2023-05-01T02:47:47.931Z,100790.42
2023-05-01T02:49:59.387Z,100789.55
2023-05-01T02:52:13.510Z,100787.12
2023-05-01T02:54:23.699Z,100787.14
2023-05-01T02:56:33.522Z,100784.29
2023-05-01T02:58:43.158Z,100786.91
2023-05-01T03:01:02.957Z,100781.48
2023-05-01T03:03:13.186Z,100789.80
2023-05-01T03:05:23.050Z,100796.92
2023-05-01T03:07:35.961Z,100797.33
2023-05-01T03:09:49.601Z,100795.30
2023-05-01T03:12:03.049Z,100799.27
2023-05-01T03:14:12.700Z,100800.88
2023-05-01T03:16:22.280Z,100800.58
2023-05-01T03:18:41.911Z,100804.31
2023-05-01T03:20:58.010Z,100802.91
2023-05-01T03:23:09.584Z,100802.45
2023-05-01T03:25:22.506Z,100800.79
2023-05-01T03:27:32.428Z,100804.34
2023-05-01T03:29:42.189Z,100805.21
2023-05-01T03:32:11.884Z,100800.80
2023-05-01T03:34:25.204Z,100803.09
2023-05-01T03:36:38.545Z,100806.48
2023-05-01T03:38:51.235Z,100812.10
2023-05-01T03:41:10.142Z,100818.00
2023-05-01T03:43:37.807Z,100818.94
2023-05-01T03:45:51.528Z,100823.67
2023-05-01T03:48:01.324Z,100827.06
2023-05-01T03:50:13.508Z,100828.00
2023-05-01T03:52:43.020Z,100827.75
2023-05-01T03:55:02.712Z,100827.89
2023-05-01T03:57:17.819Z,100826.70
2023-05-01T03:59:27.495Z,100828.65
2023-05-01T04:01:38.793Z,100828.70
2023-05-01T04:03:48.762Z,100824.92
2023-05-01T04:06:09.508Z,100829.55
2023-05-01T04:08:24.376Z,100833.08
2023-05-01T04:10:37.074Z,100837.61
2023-05-01T04:12:49.270Z,100838.54
2023-05-01T04:14:58.862Z,100844.05
2023-05-01T04:17:08.412Z,100841.50
2023-05-01T04:19:18.649Z,100841.66
2023-05-01T04:21:29.104Z,100843.90
2023-05-01T04:23:38.909Z,100843.10
2023-05-01T04:25:48.493Z,100848.35
2023-05-01T04:28:02.251Z,100843.77
2023-05-01T04:30:13.781Z,100847.09
2023-05-01T04:32:23.258Z,100848.58
2023-05-01T04:34:33.241Z,100849.41
2023-05-01T04:36:43.140Z,100851.14
2023-05-01T04:38:55.508Z,100850.59
2023-05-01T04:41:05.296Z,100850.40
2023-05-01T04:43:14.992Z,100852.61
2023-05-01T04:45:44.568Z,100850.23
2023-05-01T04:47:54.878Z,100848.56
2023-05-01T04:50:04.460Z,100844.38
2023-05-01T04:52:14.237Z,100846.72
2023-05-01T04:54:32.711Z,100842.83
2023-05-01T04:56:45.587Z,100846.98
2023-05-01T04:58:55.315Z,100849.02
2023-05-01T05:01:07.974Z,100854.52
2023-05-01T05:03:19.438Z,100856.31
2023-05-01T05:05:29.212Z,100856.75
2023-05-01T05:07:42.909Z,100855.46
2023-05-01T05:10:15.484Z,100863.80
2023-05-01T05:12:29.826Z,100864.80
2023-05-01T05:14:39.989Z,100869.52
2023-05-01T05:16:49.496Z,100867.23
2023-05-01T05:19:02.633Z,100867.04
2023-05-01T05:21:13.486Z,100868.04
2023-05-01T05:23:28.176Z,100871.25
2023-05-01T05:25:38.363Z,100868.55
2023-05-01T05:28:08.129Z,100867.02
2023-05-01T05:30:18.216Z,100869.86
2023-05-01T05:32:28.095Z,100870.55
2023-05-01T05:34:37.813Z,100866.42
2023-05-01T05:36:47.371Z,100867.04
2023-05-01T05:38:57.910Z,100860.81
2023-05-01T05:41:07.694Z,100860.29
2023-05-01T05:43:17.636Z,100858.59
2023-05-01T05:45:27.354Z,100857.73
2023-05-01T05:47:37.191Z,100858.56
2023-05-01T05:49:47.254Z,100864.05
2023-05-01T05:51:56.858Z,100866.70
2023-05-01T05:54:07.405Z,100867.16
2023-05-01T05:56:40.013Z,100871.69
2023-05-01T05:58:49.458Z,100879.52
2023-05-01T06:00:59.111Z,100878.50
2023-05-01T06:03:08.843Z,100884.30
2023-05-01T06:05:18.675Z,100884.58
2023-05-01T06:07:29.298Z,100884.24
2023-05-01T06:10:02.013Z,100884.80
2023-05-01T06:12:11.706Z,100881.64
2023-05-01T06:14:21.928Z,100876.89
2023-05-01T06:16:34.988Z,100875.47
2023-05-01T06:18:58.391Z,100873.02
2023-05-01T06:21:11.406Z,100873.86
2023-05-01T06:23:23.963Z,100871.98
2023-05-01T06:26:02.643Z,100869.95
2023-05-01T06:28:12.730Z,100863.88
2023-05-01T06:30:22.909Z,100864.10
2023-05-01T06:32:32.785Z,100863.30
2023-05-01T06:34:42.348Z,100866.99
2023-05-01T06:36:51.842Z,100862.50
2023-05-01T06:39:01.642Z,100863.12
2023-05-01T06:41:13.316Z,100860.59
2023-05-01T06:43:22.914Z,100857.19
2023-05-01T06:45:35.174Z,100860.09
2023-05-01T06:47:47.618Z,100859.38
2023-05-01T06:50:08.036Z,100856.92
2023-05-01T06:52:17.650Z,100854.38
2023-05-01T06:54:27.353Z,100853.19
2023-05-01T06:56:40.146Z,100851.77
2023-05-01T06:58:49.698Z,100847.42
2023-05-01T07:00:59.582Z,100848.52
2023-05-01T07:03:09.585Z,100849.83
2023-05-01T07:05:22.834Z,100856.87
2023-05-01T07:07:35.635Z,100858.81
2023-05-01T07:10:05.345Z,100858.83
2023-05-01T07:12:18.099Z,100859.27
2023-05-01T07:14:30.729Z,100856.48
2023-05-01T07:16:40.762Z,100856.78
2023-05-01T07:18:50.278Z,100856.30
2023-05-01T07:21:12.388Z,100857.95
2023-05-01T07:23:23.937Z,100857.15
2023-05-01T07:25:53.364Z,100858.70
2023-05-01T07:28:04.961Z,100858.54
2023-05-01T07:30:18.794Z,100859.70
2023-05-01T07:32:38.541Z,100858.37
2023-05-01T07:34:47.908Z,100860.64
2023-05-01T07:36:57.418Z,100858.77
2023-05-01T07:39:10.977Z,100857.65
2023-05-01T07:41:20.455Z,100857.79
2023-05-01T07:43:30.300Z,100853.77
2023-05-01T07:45:40.282Z,100855.26
2023-05-01T07:47:52.943Z,100854.10
2023-05-01T07:50:06.122Z,100854.16
2023-05-01T07:52:18.491Z,100852.42
2023-05-01T07:54:52.432Z,100848.48
2023-05-01T07:57:02.517Z,100847.30
2023-05-01T07:59:15.464Z,100847.43
2023-05-01T08:01:45.389Z,100847.41
2023-05-01T08:04:05.948Z,100851.79
2023-05-01T08:06:18.996Z,100855.96
2023-05-01T08:08:28.897Z,100853.21
2023-05-01T08:10:49.043Z,100853.75
2023-05-01T08:13:01.722Z,100854.92
2023-05-01T08:15:15.125Z,100854.90
2023-05-01T08:17:28.647Z,100853.50
2023-05-01T08:19:41.305Z,100853.95
2023-05-01T08:21:53.520Z,100853.69
2023-05-01T08:24:03.042Z,100856.89
2023-05-01T08:26:12.809Z,100853.78
2023-05-01T08:28:22.654Z,100855.40
2023-05-01T08:30:32.956Z,100860.95
2023-05-01T08:32:42.945Z,100857.94
2023-05-01T08:34:55.799Z,100855.64
2023-05-01T08:37:05.267Z,100847.45
2023-05-01T08:39:17.793Z,100836.52
2023-05-01T08:41:29.338Z,100831.23
2023-05-01T08:43:39.585Z,100830.84
2023-05-01T08:46:01.913Z,100834.91
2023-05-01T08:48:14.612Z,100829.02
2023-05-01T08:50:35.614Z,100828.98
2023-05-01T08:52:46.062Z,100827.65
2023-05-01T08:55:02.019Z,100821.98
2023-05-01T08:57:13.935Z,100819.22
2023-05-01T08:59:22.070Z,100820.63
2023-05-01T09:01:52.328Z,100822.66
2023-05-01T09:04:04.143Z,100820.60
2023-05-01T09:06:14.603Z,100819.19
2023-05-01T09:08:24.063Z,100818.67
2023-05-01T09:10:35.018Z,100812.27
2023-05-01T09:12:52.126Z,100805.73
2023-05-01T09:15:01.699Z,100803.64
2023-05-01T09:17:17.227Z,100798.56
2023-05-01T09:19:30.755Z,100791.79
2023-05-01T09:21:46.864Z,100796.73
2023-05-01T09:23:56.641Z,100803.70
2023-05-01T09:26:27.248Z,100797.98
2023-05-01T09:28:46.855Z,100797.67
2023-05-01T09:31:24.663Z,100796.48
2023-05-01T09:33:38.169Z,100795.39
2023-05-01T09:35:59.971Z,100792.88
2023-05-01T09:38:21.617Z,100785.49
2023-05-01T09:40:34.655Z,100779.13
2023-05-01T09:42:51.901Z,100783.91
2023-05-01T09:45:05.925Z,100788.86
2023-05-01T09:47:36.228Z,100785.65
2023-05-01T09:49:52.050Z,100785.08
2023-05-01T09:52:15.006Z,100782.86
2023-05-01T09:54:24.570Z,100778.54
2023-05-01T09:56:48.425Z,100781.90
2023-05-01T09:59:00.407Z,100778.20
2023-05-01T10:04:41.417Z,100777.40
2023-05-01T10:06:54.064Z,100771.11
2023-05-01T10:09:03.525Z,100776.05
2023-05-01T10:11:13.132Z,100775.80
2023-05-01T10:13:22.837Z,100778.75
2023-05-01T10:15:52.511Z,100782.48
2023-05-01T10:18:02.904Z,100780.37
2023-05-01T10:20:15.170Z,100776.95
2023-05-01T10:22:25.294Z,100777.33
2023-05-01T10:24:34.958Z,100777.41
2023-05-01T10:26:46.234Z,100775.98
2023-05-01T10:28:59.152Z,100768.95
2023-05-01T10:31:13.629Z,100768.45
2023-05-01T10:33:24.345Z,100764.09
2023-05-01T10:35:38.514Z,100766.98
2023-05-01T10:37:53.372Z,100768.08
2023-05-01T10:40:42.454Z,100766.02
2023-05-01T10:43:17.586Z,100766.54
2023-05-01T10:45:36.887Z,100765.86
2023-05-01T10:47:52.828Z,100763.83
2023-05-01T10:50:10.699Z,100759.35
2023-05-01T10:52:20.108Z,100761.21
2023-05-01T10:54:31.651Z,100764.81
2023-05-01T10:56:49.484Z,100763.30
2023-05-01T10:59:06.151Z,100762.66
2023-05-01T11:01:40.261Z,100755.41
2023-05-01T11:03:49.863Z,100759.80
2023-05-01T11:06:12.162Z,100760.89
2023-05-01T11:08:38.223Z,100761.42
2023-05-01T11:10:47.649Z,100760.88
2023-05-01T11:12:57.325Z,100763.94
2023-05-01T11:15:10.931Z,100769.60
2023-05-01T11:17:49.981Z,100763.77
2023-05-01T11:19:59.390Z,100760.65
2023-05-01T11:22:17.396Z,100758.27
2023-05-01T11:24:36.958Z,100751.20
2023-05-01T11:26:47.689Z,100743.23
2023-05-01T11:28:59.642Z,100744.83
2023-05-01T11:31:09.557Z,100750.71
2023-05-01T11:33:28.874Z,100757.17
2023-05-01T11:36:05.410Z,100756.38
2023-05-01T11:38:24.908Z,100751.50
2023-05-01T11:40:40.376Z,100747.95
2023-05-01T11:42:50.079Z,100751.14
2023-05-01T11:45:13.727Z,100761.41
2023-05-01T11:47:27.636Z,100756.77
2023-05-01T11:49:37.458Z,100754.25
2023-05-01T11:51:47.025Z,100753.07
2023-05-01T11:54:09.207Z,100752.35
2023-05-01T11:56:27.038Z,100748.43
2023-05-01T11:58:40.404Z,100749.21
2023-05-01T12:00:54.504Z,100751.31
2023-05-01T12:03:06.763Z,100751.15
2023-05-01T12:05:23.727Z,100757.36
2023-05-01T12:07:33.093Z,100751.63
2023-05-01T12:09:44.469Z,100750.48
2023-05-01T12:11:55.343Z,100753.04
2023-05-01T12:14:05.038Z,100751.52
2023-05-01T12:16:14.777Z,100752.71
2023-05-01T12:18:24.800Z,100754.83
2023-05-01T12:20:55.047Z,100752.67
2023-05-01T12:23:05.433Z,100755.67
2023-05-01T12:25:19.513Z,100752.76
2023-05-01T12:27:28.850Z,100752.85
2023-05-01T12:29:48.544Z,100752.51
2023-05-01T12:31:58.970Z,100754.23
2023-05-01T12:34:09.262Z,100756.42
2023-05-01T12:36:18.758Z,100759.54
2023-05-01T12:38:28.204Z,100755.98
2023-05-01T12:40:37.731Z,100753.94
2023-05-01T12:42:55.788Z,100753.44
2023-05-01T12:45:06.413Z,100752.39
2023-05-01T12:47:16.509Z,100754.59
2023-05-01T12:49:27.593Z,100750.73
2023-05-01T12:51:40.628Z,100751.98
2023-05-01T12:54:01.280Z,100752.20
2023-05-01T12:56:11.481Z,100755.95
2023-05-01T12:58:24.315Z,100752.10
2023-05-01T13:00:46.515Z,100751.94
2023-05-01T13:03:09.493Z,100753.27
2023-05-01T13:05:19.969Z,100749.66
2023-05-01T13:07:29.599Z,100744.32
2023-05-01T13:09:40.877Z,100743.14
2023-05-01T13:12:02.944Z,100746.34
2023-05-01T13:14:12.992Z,100745.53
2023-05-01T13:16:23.068Z,100745.34
2023-05-01T13:18:49.386Z,100749.85
2023-05-01T13:21:06.899Z,100750.17
2023-05-01T13:23:19.933Z,100751.34
2023-05-01T13:25:40.700Z,100747.02
2023-05-01T13:27:53.925Z,100746.52
2023-05-01T13:30:03.664Z,100748.52
2023-05-01T13:32:17.447Z,100744.61
2023-05-01T13:34:30.986Z,100739.27
2023-05-01T13:36:44.658Z,100736.45
2023-05-01T13:38:56.409Z,100735.66
2023-05-01T13:41:04.222Z,100737.21
2023-05-01T13:43:18.055Z,100737.21
2023-05-01T13:45:28.541Z,100743.27
2023-05-01T13:47:41.630Z,100735.46
2023-05-01T13:50:15.291Z,100736.13
2023-05-01T13:52:26.174Z,100734.48
2023-05-01T13:54:35.901Z,100735.40
2023-05-01T13:56:45.719Z,100732.60
2023-05-01T13:58:55.717Z,100732.38
2023-05-01T14:01:10.598Z,100737.64
2023-05-01T14:03:24.468Z,100735.42
2023-05-01T14:05:46.774Z,100739.18
2023-05-01T14:08:09.154Z,100737.77
2023-05-01T14:10:22.978Z,100739.52
2023-05-01T14:12:42.113Z,100739.85
2023-05-01T14:15:06.095Z,100732.30
2023-05-01T14:17:18.463Z,100733.55
2023-05-01T14:19:33.825Z,100730.39
2023-05-01T14:22:04.176Z,100731.61
2023-05-01T14:24:15.453Z,100730.81
2023-05-01T14:26:25.966Z,100729.08
2023-05-01T14:28:42.381Z,100732.30
2023-05-01T14:30:57.308Z,100729.27
2023-05-01T14:33:13.525Z,100725.92
2023-05-01T14:35:36.061Z,100720.95
2023-05-01T14:37:47.699Z,100723.71
2023-05-01T14:39:58.582Z,100719.96
2023-05-01T14:42:11.238Z,100711.89
2023-05-01T14:44:28.440Z,100711.90
2023-05-01T14:46:46.115Z,100713.36
2023-05-01T14:48:58.666Z,100708.39
2023-05-01T14:51:22.952Z,100707.63
2023-05-01T14:53:44.051Z,100705.90
2023-05-01T14:55:54.493Z,100704.13
2023-05-01T14:58:07.325Z,100701.67
2023-05-01T15:00:28.223Z,100700.46
2023-05-01T15:02:39.455Z,100696.52
2023-05-01T15:04:49.261Z,100700.95
2023-05-01T15:07:01.415Z,100698.17
2023-05-01T15:09:10.998Z,100697.89
2023-05-01T15:11:21.331Z,100702.69
2023-05-01T15:13:32.169Z,100702.60
2023-05-01T15:15:41.403Z,100698.66
2023-05-01T15:17:50.833Z,100700.08
2023-05-01T15:20:13.130Z,100697.31
2023-05-01T15:22:25.469Z,100699.51
2023-05-01T15:24:37.913Z,100693.32
2023-05-01T15:26:47.278Z,100692.01
2023-05-01T15:28:59.641Z,100691.67
2023-05-01T15:31:08.976Z,100692.23
2023-05-01T15:33:28.525Z,100690.84
2023-05-01T15:35:37.700Z,100691.81
2023-05-01T15:37:50.250Z,100693.67
2023-05-01T15:39:59.866Z,100695.98
2023-05-01T15:42:18.614Z,100698.21
2023-05-01T15:44:32.091Z,100698.56
2023-05-01T15:46:41.772Z,100696.61
2023-05-01T15:49:01.588Z,100696.86
2023-05-01T15:51:11.136Z,100695.08
2023-05-01T15:53:21.575Z,100695.17
2023-05-01T15:55:41.765Z,100687.41
2023-05-01T15:57:51.411Z,100683.21
2023-05-01T16:00:22.142Z,100686.67
2023-05-01T16:02:41.598Z,100686.46
2023-05-01T16:04:52.289Z,100690.41
2023-05-01T16:07:06.384Z,100689.09
2023-05-01T16:09:19.254Z,100688.27
2023-05-01T16:11:28.491Z,100684.09
2023-05-01T16:13:41.176Z,100681.11
2023-05-01T16:16:12.581Z,100677.38
2023-05-01T16:18:32.003Z,100676.23
2023-05-01T16:20:45.117Z,100671.70
2023-05-01T16:23:05.139Z,100668.11
2023-05-01T16:25:15.627Z,100672.73
2023-05-01T16:27:25.060Z,100671.17
2023-05-01T16:29:54.580Z,100670.98
2023-05-01T16:32:16.748Z,100667.02
2023-05-01T16:34:29.971Z,100665.55
2023-05-01T16:36:50.035Z,100668.61
2023-05-01T16:38:59.376Z,100670.66
2023-05-01T16:41:09.348Z,100669.41
2023-05-01T16:43:39.033Z,100671.39
2023-05-01T16:45:54.485Z,100674.48
2023-05-01T16:48:07.345Z,100669.63
2023-05-01T16:50:17.301Z,100665.73
2023-05-01T16:52:39.435Z,100670.86
2023-05-01T16:54:48.922Z,100671.90
2023-05-01T16:56:58.290Z,100679.68
2023-05-01T16:59:28.409Z,100683.40
2023-05-01T17:01:47.022Z,100681.08
2023-05-01T17:04:17.206Z,100683.06
2023-05-01T17:06:37.673Z,100686.69
2023-05-01T17:08:58.251Z,100683.18
2023-05-01T17:11:10.471Z,100684.77
2023-05-01T17:13:20.358Z,100678.83
2023-05-01T17:15:29.713Z,100679.09
2023-05-01T17:17:42.062Z,100679.87
2023-05-01T17:19:51.810Z,100679.96
2023-05-01T17:22:01.269Z,100683.20
2023-05-01T17:24:31.098Z,100682.08
2023-05-01T17:26:40.438Z,100684.98
2023-05-01T17:28:52.807Z,100680.70
2023-05-01T17:31:05.363Z,100683.39
2023-05-01T17:33:25.896Z,100676.27
2023-05-01T17:35:35.259Z,100669.05
2023-05-01T17:37:44.915Z,100668.45
2023-05-01T17:39:58.117Z,100671.09
2023-05-01T17:42:07.609Z,100674.29
2023-05-01T17:44:28.134Z,100668.20
2023-05-01T17:46:39.267Z,100669.74
2023-05-01T17:48:57.638Z,100668.14
2023-05-01T17:51:07.129Z,100670.75
2023-05-01T17:53:27.613Z,100671.63
2023-05-01T17:55:41.090Z,100668.51
2023-05-01T17:57:50.415Z,100670.70
2023-05-01T18:00:03.889Z,100673.45
2023-05-01T18:02:21.470Z,100671.68
2023-05-01T18:04:31.091Z,100669.03
2023-05-01T18:06:41.013Z,100669.16
2023-05-01T18:08:50.791Z,100666.14
2023-05-01T18:11:04.008Z,100670.52
2023-05-01T18:13:13.714Z,100662.88
2023-05-01T18:15:26.727Z,100655.36
2023-05-01T18:17:36.069Z,100650.15
2023-05-01T18:19:45.485Z,100655.92
2023-05-01T18:21:55.452Z,100654.92
2023-05-01T18:24:05.049Z,100652.22
2023-05-01T18:26:14.386Z,100649.07
2023-05-01T18:28:27.296Z,100641.54
2023-05-01T18:30:36.748Z,100637.86
2023-05-01T18:32:48.920Z,100636.50
2023-05-01T18:34:58.625Z,100632.50
2023-05-01T18:37:07.907Z,100625.67
2023-05-01T18:39:28.608Z,100630.41
2023-05-01T18:41:38.172Z,100634.39
2023-05-01T18:43:55.018Z,100630.92
2023-05-01T18:46:05.506Z,100631.18
2023-05-01T18:48:18.453Z,100625.19
2023-05-01T18:50:38.918Z,100628.20
2023-05-01T18:52:48.617Z,100622.52
2023-05-01T18:54:58.046Z,100626.56
2023-05-01T18:57:18.369Z,100621.21
2023-05-01T18:59:40.970Z,100613.96
2023-05-01T19:01:55.171Z,100615.73
2023-05-01T19:04:24.489Z,100611.82
2023-05-01T19:06:34.364Z,100605.86
2023-05-01T19:08:46.831Z,100603.91
2023-05-01T19:10:58.993Z,100602.67
2023-05-01T19:13:28.881Z,100604.31
2023-05-01T19:15:38.317Z,100602.71
2023-05-01T19:17:53.539Z,100602.58
2023-05-01T19:20:04.879Z,100599.92
2023-05-01T19:22:14.093Z,100596.09
2023-05-01T19:24:23.378Z,100592.60
2023-05-01T19:26:33.026Z,100586.17
2023-05-01T19:29:02.386Z,100588.29
2023-05-01T19:31:22.110Z,100583.48
2023-05-01T19:33:31.482Z,100578.14
2023-05-01T19:35:50.208Z,100574.71
2023-05-01T19:38:00.607Z,100571.11
2023-05-01T19:40:11.774Z,100566.63
2023-05-01T19:42:24.632Z,100568.27
2023-05-01T19:44:46.962Z,100571.58
2023-05-01T19:46:56.321Z,100572.53
2023-05-01T19:49:05.847Z,100567.80
2023-05-01T19:51:15.246Z,100570.30
2023-05-01T19:53:25.345Z,100573.88
2023-05-01T19:55:54.969Z,100570.44
2023-05-01T19:58:15.485Z,100572.24
2023-05-01T20:00:25.342Z,100566.85
2023-05-01T20:02:44.662Z,100568.06
2023-05-01T20:05:14.395Z,100563.63
2023-05-01T20:07:33.073Z,100555.15
2023-05-01T20:09:42.413Z,100553.77
2023-05-01T20:12:11.644Z,100547.54
2023-05-01T20:14:23.717Z,100547.98
2023-05-01T20:16:33.454Z,100540.98
2023-05-01T20:19:02.884Z,100540.06
2023-05-01T20:21:33.271Z,100539.92
2023-05-01T20:23:45.483Z,100546.64
2023-05-01T20:25:55.544Z,100549.73
2023-05-01T20:28:05.112Z,100552.92
2023-05-01T20:30:15.801Z,100543.23
2023-05-01T20:32:37.150Z,100537.02
2023-05-01T20:34:57.322Z,100537.37
2023-05-01T20:37:09.877Z,100537.05
2023-05-01T20:39:19.468Z,100534.70
2023-05-01T20:41:29.463Z,100534.42
2023-05-01T20:43:38.754Z,100533.70
2023-05-01T20:45:51.351Z,100535.92
2023-05-01T20:48:21.374Z,100536.34
2023-05-01T20:50:31.368Z,100541.48
2023-05-01T20:52:40.760Z,100547.26
2023-05-01T20:54:50.218Z,100551.02
2023-05-01T20:56:59.308Z,100548.60
2023-05-01T20:59:08.697Z,100551.77
2023-05-01T21:01:18.464Z,100552.20
2023-05-01T21:03:30.796Z,100547.87
2023-05-01T21:05:40.707Z,100546.55
2023-05-01T21:07:50.113Z,100548.46
2023-05-01T21:09:59.477Z,100549.89
2023-05-01T21:12:09.881Z,100552.05
2023-05-01T21:14:19.285Z,100541.33
2023-05-01T21:16:31.914Z,100534.56
2023-05-01T21:18:42.496Z,100537.17
2023-05-01T21:20:51.961Z,100540.80
2023-05-01T21:23:01.171Z,100545.30
2023-05-01T21:25:16.056Z,100544.77
2023-05-01T21:27:35.551Z,100539.17
2023-05-01T21:29:50.328Z,100535.30
2023-05-01T21:32:03.571Z,100530.41
2023-05-01T21:34:19.309Z,100533.02
2023-05-01T21:36:29.214Z,100531.36
2023-05-01T21:38:41.234Z,100529.48
2023-05-01T21:40:51.564Z,100533.98
2023-05-01T21:43:01.881Z,100534.31
2023-05-01T21:45:14.127Z,100535.66
2023-05-01T21:47:23.803Z,100539.16
2023-05-01T21:49:44.956Z,100538.36
2023-05-01T21:52:04.057Z,100535.91
2023-05-01T21:54:13.672Z,100540.11
2023-05-01T21:56:33.306Z,100534.75
2023-05-01T21:58:42.752Z,100528.99
2023-05-01T22:00:52.339Z,100521.98
2023-05-01T22:03:25.076Z,100521.10
2023-05-01T22:05:35.830Z,100514.95
2023-05-01T22:07:46.543Z,100507.30
2023-05-01T22:09:55.976Z,100507.75
2023-05-01T22:12:05.261Z,100512.10
2023-05-01T22:14:46.617Z,100509.31
2023-05-01T22:16:59.657Z,100514.36
2023-05-01T22:19:09.085Z,100517.41
2023-05-01T22:21:19.110Z,100528.54
2023-05-01T22:23:29.094Z,100535.09
2023-05-01T22:25:38.606Z,100539.59
2023-05-01T22:27:48.117Z,100539.12
2023-05-01T22:29:57.716Z,100541.80
2023-05-01T22:32:07.943Z,100542.74
2023-05-01T22:34:17.251Z,100531.36
2023-05-01T22:36:30.681Z,100521.80
2023-05-01T22:38:42.742Z,100519.67
2023-05-01T22:40:52.361Z,100518.41
2023-05-01T22:43:12.623Z,100518.58
2023-05-01T22:45:22.149Z,100512.29
2023-05-01T22:47:34.984Z,100509.45
2023-05-01T22:49:44.524Z,100512.13
2023-05-01T22:51:57.869Z,100502.92
2023-05-01T22:54:07.573Z,100499.45
2023-05-01T22:56:16.947Z,100502.20
2023-05-01T22:58:26.253Z,100506.79
2023-05-01T23:00:35.481Z,100503.64
2023-05-01T23:02:56.337Z,100502.53
2023-05-01T23:05:06.251Z,100500.08
2023-05-01T23:07:25.695Z,100503.39
2023-05-01T23:09:35.708Z,100508.77
2023-05-01T23:11:56.393Z,100505.20
2023-05-01T23:14:06.431Z,100497.48
2023-05-01T23:16:27.050Z,100488.56
2023-05-01T23:18:43.325Z,100485.09
2023-05-01T23:20:55.871Z,100486.75
2023-05-01T23:23:07.394Z,100486.12
2023-05-01T23:25:26.220Z,100485.33
2023-05-01T23:27:39.310Z,100485.33
2023-05-01T23:29:58.807Z,100490.43
2023-05-01T23:32:09.963Z,100489.95
2023-05-01T23:34:32.183Z,100490.51
2023-05-01T23:36:41.576Z,100490.83
2023-05-01T23:38:51.141Z,100488.77
2023-05-01T23:41:00.614Z,100487.18
2023-05-01T23:43:19.505Z,100483.92
2023-05-01T23:45:28.894Z,100479.28
2023-05-01T23:47:39.973Z,100483.05
2023-05-01T23:49:54.043Z,100476.98
2023-05-01T23:52:26.408Z,100475.77
2023-05-01T23:54:50.163Z,100476.88
2023-05-01T23:57:02.828Z,100475.13
2023-05-01T23:59:22.617Z,100461.00
